Caribbean Galaxy — 3EZV4 — position and weather

sailwx.info

Track history (hours):
 
Tides and Currents Weather Stations Pressure Air Temp Water Temp Dewpoint Dewpoint Depression Visibility Wind Speed Wind Dir Waves Ship Positions

Caribbean Galaxy

Last reported at 2014-Aug-08 13:23 UTC. Time now 2014-Aug-30 04:32 UTC.
Position N 35°57' E 120°43'.
Warning: this ship's position is 21 days out of date.

Length 246 m; draft 8 m.

Type: Ship (hazmat cat A). MMSI: 357449000.

Date/timePositionNaut miles runAvg speedWind from/ knotsBaromVisibWave heightAir tempDewpointWater temp
2014-Aug-08 13:23N 35°57' E 120°43'8 9.3
2014-Aug-08 12:34N 35°58' E 120°34'1010.4
2014-Aug-08 11:33N 36°01' E 120°21'6 0.2
2014-Aug-06 23:08N 36°03' E 120°15'0 0.2
2014-Aug-06 22:33N 36°03' E 120°15'5 5.1
2014-Aug-06 21:34N 36°01' E 120°21'6 6.3
2014-Aug-06 20:33N 36°00' E 120°28'8 7.9
2014-Aug-06 19:33N 35°58' E 120°38'19 0.4
2014-Aug-04 17:27N 35°47' E 120°57'  
Track history (hours):
 
Tides and Currents Weather Stations Pressure Air Temp Water Temp Dewpoint Dewpoint Depression Visibility Wind Speed Wind Dir Waves Ship Positions

Caribbean Galaxy

Last reported at 2014-Aug-08 13:23 UTC. Time now 2014-Aug-30 04:32 UTC.
Position N 35°57' E 120°43'.
Warning: this ship's position is 21 days out of date.

Length 246 m; draft 8 m.

Type: Ship (hazmat cat A). MMSI: 357449000.

Date/timePositionNaut miles runAvg speedWind from/ knotsBaromVisibWave heightAir tempDewpointWater temp
2014-Aug-08 13:23N 35°57' E 120°43'8 9.3
2014-Aug-08 12:34N 35°58' E 120°34'1010.4
2014-Aug-08 11:33N 36°01' E 120°21'6 0.2
2014-Aug-06 23:08N 36°03' E 120°15'0 0.2
2014-Aug-06 22:33N 36°03' E 120°15'5 5.1
2014-Aug-06 21:34N 36°01' E 120°21'6 6.3
2014-Aug-06 20:33N 36°00' E 120°28'8 7.9
2014-Aug-06 19:33N 35°58' E 120°38'19 0.4
2014-Aug-04 17:27N 35°47' E 120°57'  

Dump ship's entire track history